METAR Data
IDs: Format: Raw Decoded Include TAF

Data at: 0141 UTC 19 Oct 2021

PADL 190056Z 18003KT 10SM CLR 06/M03 A2962 RMK AO2 SLP035 T00561033
PADL 182356Z 15003KT 10SM CLR 06/M04 A2963 RMK AO2 SLP038 T00611039 10061 20006 58011
PADL 182256Z 12005KT 10SM CLR 05/M04 A2965 RMK AO2 SLP043 T00501039
PADL 182156Z 02003KT 10SM CLR 05/M05 A2966 RMK AO2 SLP047 T00501050
PADL 182056Z 03007KT 10SM CLR 04/M05 A2967 RMK AO2 SLP049 T00441050 50003
PADL 181956Z 35006KT 10SM CLR 03/M04 A2967 RMK AO2 SLP051 T00281044
PADL 181856Z 32003KT 10SM CLR 01/M04 A2967 RMK AO2 SLP050 T00111044
PADL 181756Z 32005KT 10SM CLR 01/M04 A2966 RMK AO2 SLP046 T00061044 10039 20000 51021
PADL 181656Z 34007G13KT 10SM CLR 01/M04 A2964 RMK AO2 SLP040 T00061044
PADL 181556Z 36009G14KT 10SM CLR 03/M04 A2962 RMK AO2 SLP032 T00331044
PADL 181456Z AUTO 36015G20KT 10SM CLR 03/M04 A2960 RMK AO2 SLP025 T00331044 51016
PADL 181356Z AUTO 35012KT 10SM CLR 03/M04 A2959 RMK AO2 SLP024 T00331039
PADL 181256Z AUTO 36015G22KT 10SM CLR 04/M04 A2958 RMK AO2 SLP020 T00391044
PADL 181156Z AUTO 36018G23KT 10SM CLR 04/M04 A2955 RMK AO2 PK WND 36028/1058 SLP010 70007 T00391039 10044 20033 53030
PADL 181056Z AUTO 36020G27KT 10SM CLR 04/M04 A2952 RMK AO2 PK WND 36030/1044 SLP001 T00441039
PADL 180956Z AUTO 34018G26KT 10SM CLR 03/M04 A2949 RMK AO2 PK WND 01029/0912 SLP988 T00331039
PADL 180856Z AUTO 35018G23KT 10SM CLR 03/M04 A2946 RMK AO2 PK WND 36029/0806 SLP979 T00331039 400610000 53040
PADL 180756Z AUTO 36020G28KT 10SM CLR 04/M04 A2941 RMK AO2 PK WND 01030/0745 SLP961 T00391044
PADL 180656Z AUTO 34017G22KT 10SM FEW070 04/M03 A2939 RMK AO2 SLP955 T00391033
PADL 180556Z AUTO 36016KT 10SM CLR 04/M03 A2934 RMK AO2 SLP939 T00391028 10061 20039 51050
PADL 180456Z 36018G31KT 10SM FEW075 04/M03 A2929 RMK AO2 SLP923 T00391028
PADL 180356Z 36020G27KT 10SM CLR 04/M02 A2924 RMK AO2 PK WND 01032/0344 SLP906 T00441022
PADL 180256Z 01019G25KT 10SM CLR 05/M02 A2919 RMK AO2 PK WND 36033/0157 SLP889 T00501017 53031
PADL 180156Z 02025G33KT 10SM BKN075 06/M02 A2915 RMK AO2 PK WND 02033/0152 SLP874 T00611017
PADL 180056Z 02024G29KT 10SM BKN075 06/M01 A2912 RMK AO2 PK WND 02029/0056 SLP862 T00611011
PADL 172356Z 02019G25KT 10SM OVC030 05/M01 A2910 RMK AO2 PK WND 03027/2339 SLP858 60001 T00501006 10050 20022 51025
PADL 172256Z 03017G23KT 10SM OVC031 04/01 A2908 RMK AO2 RAE46 SLP850 P0000 T00390011
PADL 172203Z 04018G23KT 10SM -RA BKN023 OVC032 03/02 A2906 RMK AO2 P0000
PADL 172156Z 02018G26KT 10SM -RA OVC030 03/01 A2905 RMK AO2 SLP840 P0001 T00280011
PADL 172056Z 05013G21KT 7SM -RA OVC030 02/01 A2903 RMK AO2 SLP832 P0000 60000 T00220011 53028
PADL 171956Z 05013G17KT 10SM -RA BKN032 02/01 A2899 RMK AO2 UPB13E16 SLP821 P0000 T00220011
PADL 171856Z 06013KT 10SM -RA FEW010 OVC035 02/02 A2897 RMK AO2 SLP813 P0000 T00220017
PADL 171756Z 06013G20KT 10SM -RA BKN029 OVC046 02/02 A2894 RMK AO2 SLP804 P0001 60006 T00220017 10022 20000 53006
PADL 171656Z 07015G21KT 10SM -RA OVC025 02/02 A2893 RMK AO2 SLP801 P0001 T00170017
PADL 171556Z 07013G21KT 10SM -RA OVC021 01/01 A2892 RMK AO2 PK WND 07026/1519 SLP796 P0001 T00110011
PADL 171456Z AUTO 07015G26KT 10SM -RA OVC019 01/01 A2892 RMK AO2 PK WND 06026/1453 UPB28E38RAB38SNE28 SLP797 P0001 60003 T00110006 55016 FZRANO
PADL 171432Z AUTO 07015G20KT 9SM UP FEW004 OVC017 01/01 A2892 RMK AO2 UPB28SNE28 P0000 FZRANO
PADL 171356Z AUTO 06015G22KT 5SM -SN BR OVC006 01/00 A2892 RMK AO2 CIG 004V008 SLP797 P0001 T00060000 FZRANO
PADL 171347Z AUTO 06014G23KT 4SM -SN BR OVC006 01/00 A2892 RMK AO2 CIG 004V008 P0001 FZRANO